Kings Canyon National Pk, California
Current Conditions -  °F | °C
As of 4:56 AM on Sunday 23 Nov 2014 (Local Time) from KBIH Reporting Station
Clear Clear  
Wind Chill: 32°   Ceiling: Unl
Heat Index: 41°   Visibility: 10mi
Dew Point: 22°   Wind: 18mph
Humidity: 47%   Direction: 310°NW
Pressure: 30.28"   Gusts: NA
Location:  36.7872°N, 118.66°W
Report Text: KBIH 231256Z AUTO 31016KT 10SM CLR 05/M06 A3028 RMK AO2 SLP234 T00501056
Loading
Personal Weather Stations






























Interactive Weather Map New forecast layout! Learn more

10-Day Weather Forecast

Advertisements
Track Severe Weather on mobile